createdAt,value
2023-02-22T00:04:53.967Z,11.77
2023-02-22T00:14:58.589Z,11.40
2023-02-22T00:25:01.820Z,11.30
2023-02-22T00:35:08.306Z,10.07
2023-02-22T00:45:11.554Z,10.47
2023-02-22T00:55:21.514Z,10.07
2023-02-22T01:05:27.353Z,9.97
2023-02-22T01:15:31.942Z,9.60
2023-02-22T01:25:36.508Z,10.13
2023-02-22T01:35:41.844Z,9.43
2023-02-22T01:46:02.566Z,9.03
2023-02-22T01:56:08.452Z,9.73
2023-02-22T02:06:15.577Z,9.23
2023-02-22T02:16:21.889Z,8.43
2023-02-22T02:27:00.412Z,9.03
2023-02-22T02:37:13.086Z,9.60
2023-02-22T02:47:20.996Z,9.17
2023-02-22T02:57:25.739Z,9.43
2023-02-22T03:07:45.501Z,8.87
2023-02-22T03:17:57.665Z,8.63
2023-02-22T03:28:05.341Z,8.63
2023-02-22T03:38:13.610Z,8.67
2023-02-22T03:48:23.890Z,8.37
2023-02-22T03:58:32.625Z,7.63
2023-02-22T04:08:36.073Z,8.33
2023-02-22T04:18:40.696Z,8.40
2023-02-22T04:28:44.282Z,7.70
2023-02-22T04:38:53.618Z,8.60
2023-02-22T04:48:57.630Z,8.27
2023-02-22T04:59:04.950Z,8.30
2023-02-22T05:09:08.536Z,7.43
2023-02-22T05:19:13.304Z,7.87
2023-02-22T05:29:16.468Z,8.20
2023-02-22T05:39:21.054Z,8.37
2023-02-22T05:49:24.236Z,7.70
2023-02-22T05:59:29.378Z,7.40
2023-02-22T06:09:32.620Z,8.30
2023-02-22T06:19:37.438Z,7.53
2023-02-22T06:29:40.678Z,8.57
2023-02-22T06:39:45.313Z,7.30
2023-02-22T06:49:54.175Z,6.93
2023-02-22T06:59:58.754Z,7.93
2023-02-22T07:10:02.259Z,7.77
2023-02-22T07:20:07.889Z,7.30
2023-02-22T07:30:18.269Z,7.00
2023-02-22T07:40:23.088Z,7.57
2023-02-22T07:50:27.642Z,6.70
2023-02-22T08:00:33.953Z,7.00
2023-02-22T08:10:37.988Z,7.23
2023-02-22T08:20:44.601Z,6.20
2023-02-22T08:30:48.082Z,6.60
2023-02-22T08:40:52.864Z,5.97
2023-02-22T08:50:56.234Z,6.07
2023-02-22T09:01:00.832Z,5.70
2023-02-22T09:11:04.022Z,6.17
2023-02-22T09:21:08.662Z,6.50
2023-02-22T09:31:11.858Z,6.83
2023-02-22T09:41:23.812Z,8.47
2023-02-22T09:51:29.987Z,8.97
2023-02-22T10:01:39.146Z,9.73
2023-02-22T10:11:53.419Z,10.00
2023-02-22T10:22:28.436Z,10.93
2023-02-22T10:32:38.642Z,11.73
2023-02-22T10:42:43.240Z,11.40
2023-02-22T10:52:46.480Z,12.40
2023-02-22T11:02:56.099Z,12.55
2023-02-22T11:12:59.376Z,13.57
2023-02-22T11:23:08.165Z,13.38
2023-02-22T11:33:23.767Z,13.63
2023-02-22T11:43:28.506Z,14.20
2023-02-22T11:53:47.195Z,13.65
2023-02-22T12:04:23.814Z,14.27
2023-02-22T12:14:35.551Z,14.27
2023-02-22T12:24:44.872Z,12.55
2023-02-22T12:34:54.308Z,13.05
2023-02-22T12:45:04.606Z,11.45
2023-02-22T12:55:16.993Z,11.15
2023-02-22T13:05:21.716Z,11.23
2023-02-22T13:15:30.243Z,9.77
2023-02-22T13:25:41.909Z,10.13
2023-02-22T13:36:02.603Z,9.40
2023-02-22T13:46:36.547Z,10.38
2023-02-22T13:56:44.007Z,10.07
2023-02-22T14:06:48.713Z,9.93
2023-02-22T14:17:31.676Z,11.57
2023-02-22T14:27:44.025Z,11.43
2023-02-22T14:37:54.571Z,11.48
2023-02-22T14:48:11.618Z,13.70
2023-02-22T14:58:19.691Z,13.15
2023-02-22T15:08:28.550Z,12.52
2023-02-22T15:18:38.796Z,11.75
2023-02-22T15:28:44.101Z,10.80
2023-02-22T15:38:51.688Z,11.82
2023-02-22T15:49:23.215Z,11.23
2023-02-22T15:59:30.553Z,11.40
2023-02-22T16:09:35.784Z,11.00
2023-02-22T16:19:42.540Z,11.40
2023-02-22T16:30:23.213Z,11.25
2023-02-22T16:40:32.378Z,10.30
2023-02-22T16:50:37.160Z,9.55
2023-02-22T17:00:42.324Z,8.83
2023-02-22T17:10:47.330Z,8.87
2023-02-22T17:20:50.811Z,8.57
2023-02-22T17:31:01.239Z,8.70
2023-02-22T17:41:07.617Z,9.13
2023-02-22T17:51:13.098Z,9.00
2023-02-22T18:01:27.644Z,9.30
2023-02-22T18:11:32.705Z,9.10
2023-02-22T18:21:36.039Z,9.60
2023-02-22T18:31:40.751Z,9.53
2023-02-22T18:41:45.786Z,8.93
2023-02-22T18:51:51.018Z,10.13
2023-02-22T19:01:54.226Z,10.27
2023-02-22T19:11:59.025Z,11.30
2023-02-22T19:22:02.295Z,10.07
2023-02-22T19:32:07.531Z,9.90
2023-02-22T19:42:11.086Z,9.40
2023-02-22T19:52:15.663Z,10.23
2023-02-22T20:02:20.448Z,10.03
2023-02-22T20:12:25.014Z,10.10
2023-02-22T20:22:28.229Z,11.03
2023-02-22T20:32:33.184Z,11.83
2023-02-22T20:42:36.620Z,14.00
2023-02-22T20:52:41.199Z,11.73
2023-02-22T21:02:46.610Z,11.60
2023-02-22T21:12:52.331Z,12.00
2023-02-22T21:22:55.613Z,11.93
2023-02-22T21:33:00.243Z,12.33
2023-02-22T21:43:03.501Z,11.20
2023-02-22T21:53:08.614Z,12.07
2023-02-22T22:03:20.277Z,11.53
2023-02-22T22:13:25.678Z,11.90
2023-02-22T22:23:30.396Z,12.47
2023-02-22T22:33:38.480Z,11.50
2023-02-22T22:43:46.143Z,11.50
2023-02-22T22:53:51.747Z,12.03
2023-02-22T23:03:56.679Z,12.23
2023-02-22T23:14:04.615Z,12.50
2023-02-22T23:24:08.213Z,12.13
2023-02-22T23:34:12.774Z,13.00
2023-02-22T23:44:17.744Z,13.27
2023-02-22T23:54:24.513Z,13.20
